Terminal Aerodrome Forecast
Issued by NWS

Home | Current Version | Previous Version | Graphics & Text | Print | Product List | Glossary On
Versions: 1 2 3 4 5 6 7 8 9 10 11 12 13
027
FTUS41 KCLE 242340
TAFFDY
TAF
KFDY 242340Z 2500/2524 22005KT P6SM SKC
     FM251500 21008KT P6SM SCT050
     FM251800 21010KT P6SM BKN070=

USA.gov is the U.S. government's official web portal to all federal, state and local government web resources and services.